Guangzhou Highway — 3EDQ6 — position and weather

sailwx.info

Track history (hours):
 
Tides and Currents Weather Stations Pressure Air Temp Water Temp Dewpoint Dewpoint Depression Visibility Wind Speed Wind Dir Waves Ship Positions

Guangzhou Highway

Last reported at 2017-Dec-11 16:55 UTC. Time now 2017-Dec-12 04:18 UTC.
Position N 35°28' E 139°41'.

Length 180 m; beam 32.2 m.

Type: Cargo ship. MMSI: 371697000.

Date/timePositionNaut miles runAvg speedWind from/ knotsBaromVisibWave heightAir tempDewpointWater temp
2017-Dec-11 16:55N 35°28' E 139°41'0 0.0
2017-Dec-11 16:28N 35°28' E 139°41'0 0.0
2017-Dec-11 15:55N 35°28' E 139°41'0 0.0
2017-Dec-11 15:28N 35°28' E 139°41'0 0.0
2017-Dec-11 14:58N 35°28' E 139°41'0 0.0
2017-Dec-11 14:28N 35°28' E 139°41'0 0.0
2017-Dec-11 13:58N 35°28' E 139°41'0 0.0
2017-Dec-11 13:25N 35°28' E 139°41'0 0.1
2017-Dec-11 12:58N 35°28' E 139°41'0 0.0
2017-Dec-11 12:28N 35°28' E 139°41'0 0.0
2017-Dec-11 11:58N 35°28' E 139°41'0 0.0
2017-Dec-11 11:28N 35°28' E 139°41'0 0.0
2017-Dec-11 10:58N 35°28' E 139°41'0 0.0
2017-Dec-11 10:25N 35°28' E 139°41'0 0.0
2017-Dec-11 09:55N 35°28' E 139°41'0 0.0
2017-Dec-11 09:19N 35°28' E 139°41'0 0.0
2017-Dec-11 08:58N 35°28' E 139°41'0 0.0
2017-Dec-11 08:28N 35°28' E 139°41'0 0.0
2017-Dec-11 07:58N 35°28' E 139°41'0 0.0
2017-Dec-11 07:25N 35°28' E 139°41'0 0.0
2017-Dec-11 06:58N 35°28' E 139°41'0 0.0
2017-Dec-11 06:28N 35°28' E 139°41'0 0.0
2017-Dec-11 05:58N 35°28' E 139°41'0 0.0
2017-Dec-11 05:28N 35°28' E 139°41'0 0.1
2017-Dec-11 04:58N 35°28' E 139°41'0 0.1
2017-Dec-11 04:31N 35°28' E 139°41'1 1.0
2017-Dec-11 04:00N 35°28' E 139°41'3 6.6
2017-Dec-11 03:30N 35°27' E 139°45'3 5.6
2017-Dec-11 03:00N 35°24' E 139°46'611.2
2017-Dec-11 02:31N 35°19' E 139°44'611.2
2017-Dec-11 02:00N 35°14' E 139°47'5 9.2
2017-Dec-11 01:31N 35°09' E 139°47'3 6.6
2017-Dec-11 01:01N 35°06' E 139°45'3 6.2
2017-Dec-11 00:30N 35°04' E 139°42'3 6.4
2017-Dec-11 00:00N 35°02' E 139°39'713.1
2017-Dec-10 23:31N 34°58' E 139°32'918.3
2017-Dec-10 23:00N 34°52' E 139°24'917.6
2017-Dec-10 22:29N 34°45' E 139°17'917.9
2017-Dec-10 22:00N 34°37' E 139°12'917.6
2017-Dec-10 21:30N 34°30' E 139°07'918.5
2017-Dec-10 21:01N 34°22' E 139°01'1019.1
2017-Dec-10 20:30N 34°15' E 138°53'1119.3
2017-Dec-10 19:57N 34°08' E 138°43'  
Track history (hours):
 
Tides and Currents Weather Stations Pressure Air Temp Water Temp Dewpoint Dewpoint Depression Visibility Wind Speed Wind Dir Waves Ship Positions

Guangzhou Highway

Last reported at 2017-Dec-11 16:55 UTC. Time now 2017-Dec-12 04:18 UTC.
Position N 35°28' E 139°41'.

Length 180 m; beam 32.2 m.

Type: Cargo ship. MMSI: 371697000.

Date/timePositionNaut miles runAvg speedWind from/ knotsBaromVisibWave heightAir tempDewpointWater temp
2017-Dec-11 16:55N 35°28' E 139°41'0 0.0
2017-Dec-11 16:28N 35°28' E 139°41'0 0.0
2017-Dec-11 15:55N 35°28' E 139°41'0 0.0
2017-Dec-11 15:28N 35°28' E 139°41'0 0.0
2017-Dec-11 14:58N 35°28' E 139°41'0 0.0
2017-Dec-11 14:28N 35°28' E 139°41'0 0.0
2017-Dec-11 13:58N 35°28' E 139°41'0 0.0
2017-Dec-11 13:25N 35°28' E 139°41'0 0.1
2017-Dec-11 12:58N 35°28' E 139°41'0 0.0
2017-Dec-11 12:28N 35°28' E 139°41'0 0.0
2017-Dec-11 11:58N 35°28' E 139°41'0 0.0
2017-Dec-11 11:28N 35°28' E 139°41'0 0.0
2017-Dec-11 10:58N 35°28' E 139°41'0 0.0
2017-Dec-11 10:25N 35°28' E 139°41'0 0.0
2017-Dec-11 09:55N 35°28' E 139°41'0 0.0
2017-Dec-11 09:19N 35°28' E 139°41'0 0.0
2017-Dec-11 08:58N 35°28' E 139°41'0 0.0
2017-Dec-11 08:28N 35°28' E 139°41'0 0.0
2017-Dec-11 07:58N 35°28' E 139°41'0 0.0
2017-Dec-11 07:25N 35°28' E 139°41'0 0.0
2017-Dec-11 06:58N 35°28' E 139°41'0 0.0
2017-Dec-11 06:28N 35°28' E 139°41'0 0.0
2017-Dec-11 05:58N 35°28' E 139°41'0 0.0
2017-Dec-11 05:28N 35°28' E 139°41'0 0.1
2017-Dec-11 04:58N 35°28' E 139°41'0 0.1
2017-Dec-11 04:31N 35°28' E 139°41'1 1.0
2017-Dec-11 04:00N 35°28' E 139°41'3 6.6
2017-Dec-11 03:30N 35°27' E 139°45'3 5.6
2017-Dec-11 03:00N 35°24' E 139°46'611.2
2017-Dec-11 02:31N 35°19' E 139°44'611.2
2017-Dec-11 02:00N 35°14' E 139°47'5 9.2
2017-Dec-11 01:31N 35°09' E 139°47'3 6.6
2017-Dec-11 01:01N 35°06' E 139°45'3 6.2
2017-Dec-11 00:30N 35°04' E 139°42'3 6.4
2017-Dec-11 00:00N 35°02' E 139°39'713.1
2017-Dec-10 23:31N 34°58' E 139°32'918.3
2017-Dec-10 23:00N 34°52' E 139°24'917.6
2017-Dec-10 22:29N 34°45' E 139°17'917.9
2017-Dec-10 22:00N 34°37' E 139°12'917.6
2017-Dec-10 21:30N 34°30' E 139°07'918.5
2017-Dec-10 21:01N 34°22' E 139°01'1019.1
2017-Dec-10 20:30N 34°15' E 138°53'1119.3
2017-Dec-10 19:57N 34°08' E 138°43'  

Dump ship's entire track history